Time,TemperatureF,DewpointF,PressureIn,WindDirection,WindDirectionDegrees,WindSpeedMPH,WindSpeedGustMPH,Humidity,HourlyPrecipIn,Conditions,Clouds,dailyrainin,SoftwareType,DateUTC
2013-08-30 00:02:00,71.1,60.8,27.94,North,-999,-999.0,-999.0,70,0.00,,,0.00,WSDL version 420,2013-08-30 04:02:00,
2013-08-30 00:07:00,71.1,60.8,27.94,North,-999,-999.0,-999.0,70,0.00,,,0.00,WSDL version 420,2013-08-30 04:07:00,
2013-08-30 00:12:00,71.1,60.8,27.94,North,-999,-999.0,-999.0,70,0.00,,,0.00,WSDL version 420,2013-08-30 04:12:00,
2013-08-30 00:17:00,70.9,60.7,27.94,North,-999,-999.0,-999.0,70,0.00,,,0.00,WSDL version 420,2013-08-30 04:17:00,
2013-08-30 00:22:00,70.6,60.4,27.94,North,-999,-999.0,-999.0,70,0.00,,,0.00,WSDL version 420,2013-08-30 04:22:00,
2013-08-30 00:27:00,70.5,60.3,27.94,North,-999,-999.0,-999.0,70,0.00,,,0.00,WSDL version 420,2013-08-30 04:27:00,
2013-08-30 00:32:00,70.4,60.2,27.94,North,-999,-999.0,-999.0,70,0.00,,,0.00,WSDL version 420,2013-08-30 04:32:00,
2013-08-30 00:37:00,70.3,60.1,27.94,North,-999,-999.0,-999.0,70,0.00,,,0.00,WSDL version 420,2013-08-30 04:37:00,
2013-08-30 00:42:00,70.6,60.7,27.94,North,-999,-999.0,-999.0,71,0.00,,,0.00,WSDL version 420,2013-08-30 04:42:00,
2013-08-30 00:48:00,70.9,61.4,27.94,North,-999,-999.0,-999.0,72,0.00,,,0.00,WSDL version 420,2013-08-30 04:48:00,
2013-08-30 00:53:00,71.1,61.8,27.94,North,-999,-999.0,-999.0,73,0.00,,,0.00,WSDL version 420,2013-08-30 04:53:00,
2013-08-30 00:58:00,71.2,62.1,27.94,North,-999,-999.0,-999.0,73,0.00,,,0.00,WSDL version 420,2013-08-30 04:58:00,
2013-08-30 01:03:00,71.2,62.1,27.94,North,-999,-999.0,-999.0,73,0.00,,,0.00,WSDL version 420,2013-08-30 05:03:00,
2013-08-30 01:08:00,71.2,62.3,27.94,North,-999,-999.0,-999.0,74,0.00,,,0.00,WSDL version 420,2013-08-30 05:08:00,
2013-08-30 01:13:00,71.4,62.7,27.94,North,-999,-999.0,-999.0,74,0.00,,,0.00,WSDL version 420,2013-08-30 05:13:00,
2013-08-30 01:18:00,71.4,62.7,27.94,North,-999,-999.0,-999.0,74,0.00,,,0.00,WSDL version 420,2013-08-30 05:18:00,
2013-08-30 01:23:00,71.2,62.5,27.94,North,-999,-999.0,-999.0,74,0.00,,,0.00,WSDL version 420,2013-08-30 05:23:00,
2013-08-30 01:28:00,71.2,62.5,27.94,North,-999,-999.0,-999.0,74,0.00,,,0.00,WSDL version 420,2013-08-30 05:28:00,
2013-08-30 01:33:00,71.2,62.5,27.94,North,-999,-999.0,-999.0,74,0.00,,,0.00,WSDL version 420,2013-08-30 05:33:00,
2013-08-30 01:38:00,71.2,62.5,27.94,North,-999,-999.0,-999.0,74,0.00,,,0.00,WSDL version 420,2013-08-30 05:38:00,
2013-08-30 01:43:00,71.2,62.8,27.94,North,-999,-999.0,-999.0,75,0.00,,,0.00,WSDL version 420,2013-08-30 05:43:00,
2013-08-30 01:48:00,71.1,62.7,27.94,North,-999,-999.0,-999.0,75,0.00,,,0.00,WSDL version 420,2013-08-30 05:48:00,
2013-08-30 01:53:00,71.1,62.7,27.94,North,-999,-999.0,-999.0,75,0.00,,,0.00,WSDL version 420,2013-08-30 05:53:00,
2013-08-30 01:58:00,71.1,62.7,27.94,North,-999,-999.0,-999.0,75,0.00,,,0.00,WSDL version 420,2013-08-30 05:58:00,
2013-08-30 02:03:00,70.9,62.6,27.94,North,-999,-999.0,-999.0,75,0.00,,,0.00,WSDL version 420,2013-08-30 06:03:00,
2013-08-30 02:13:00,70.9,62.6,27.94,North,-999,-999.0,-999.0,75,0.00,,,0.00,WSDL version 420,2013-08-30 06:13:00,
2013-08-30 02:18:00,70.7,62.4,27.94,North,-999,-999.0,-999.0,75,0.00,,,0.00,WSDL version 420,2013-08-30 06:18:00,
2013-08-30 02:23:00,70.7,62.4,27.94,North,-999,-999.0,-999.0,75,0.00,,,0.00,WSDL version 420,2013-08-30 06:23:00,
2013-08-30 02:28:00,70.5,62.2,27.94,North,-999,-999.0,-999.0,75,0.00,,,0.00,WSDL version 420,2013-08-30 06:28:00,
2013-08-30 02:33:00,70.5,62.2,27.94,North,-999,-999.0,-999.0,75,0.00,,,0.00,WSDL version 420,2013-08-30 06:33:00,
2013-08-30 02:38:00,70.5,62.6,27.94,North,-999,-999.0,-999.0,76,0.00,,,0.00,WSDL version 420,2013-08-30 06:38:00,
2013-08-30 02:43:00,70.5,62.5,27.94,North,-999,-999.0,-999.0,76,0.00,,,0.00,WSDL version 420,2013-08-30 06:43:00,
2013-08-30 02:48:00,70.3,62.4,27.94,North,-999,-999.0,-999.0,76,0.00,,,0.00,WSDL version 420,2013-08-30 06:48:00,
2013-08-30 02:53:00,70.3,62.4,27.94,North,-999,-999.0,-999.0,76,0.00,,,0.00,WSDL version 420,2013-08-30 06:53:00,
2013-08-30 02:58:00,70.2,62.3,27.94,North,-999,-999.0,-999.0,76,0.00,,,0.00,WSDL version 420,2013-08-30 06:58:00,
2013-08-30 03:03:00,70.2,62.4,27.94,North,-999,-999.0,-999.0,77,0.00,,,0.00,WSDL version 420,2013-08-30 07:03:00,
2013-08-30 03:08:00,70.3,62.8,27.94,North,-999,-999.0,-999.0,77,0.00,,,0.00,WSDL version 420,2013-08-30 07:08:00,
2013-08-30 03:13:00,70.3,62.8,27.94,North,-999,-999.0,-999.0,77,0.00,,,0.00,WSDL version 420,2013-08-30 07:13:00,
2013-08-30 03:18:00,70.3,62.8,27.94,North,-999,-999.0,-999.0,77,0.00,,,0.00,WSDL version 420,2013-08-30 07:18:00,
2013-08-30 03:23:00,70.3,62.6,27.94,North,-999,-999.0,-999.0,76,0.00,,,0.00,WSDL version 420,2013-08-30 07:23:00,
2013-08-30 03:28:00,70.3,62.4,27.94,North,-999,-999.0,-999.0,76,0.00,,,0.00,WSDL version 420,2013-08-30 07:28:00,
2013-08-30 03:33:00,70.2,62.2,27.94,North,-999,-999.0,-999.0,76,-99.99,,,-99.99,WSDL version 420,2013-08-30 07:33:00,
2013-08-30 03:38:00,70.2,62.2,27.94,North,-999,-999.0,-999.0,76,0.00,,,0.00,WSDL version 420,2013-08-30 07:38:00,
2013-08-30 03:43:00,70.1,62.2,27.94,North,-999,-999.0,-999.0,76,0.00,,,0.00,WSDL version 420,2013-08-30 07:43:00,
2013-08-30 03:48:00,69.9,62.0,27.94,North,-999,-999.0,-999.0,76,0.00,,,0.00,WSDL version 420,2013-08-30 07:48:00,
2013-08-30 03:53:00,69.8,61.9,27.94,North,-999,-999.0,-999.0,76,0.00,,,0.00,WSDL version 420,2013-08-30 07:53:00,
2013-08-30 04:00:00,69.8,61.9,27.94,North,-999,-999.0,-999.0,76,0.00,,,0.00,WSDL version 420,2013-08-30 08:00:00,
2013-08-30 04:05:00,69.8,61.9,27.94,North,-999,-999.0,-999.0,76,0.00,,,0.00,WSDL version 420,2013-08-30 08:05:00,
2013-08-30 04:10:00,69.8,61.9,27.94,North,-999,-999.0,-999.0,76,0.00,,,0.00,WSDL version 420,2013-08-30 08:10:00,
2013-08-30 04:15:00,70.0,62.2,27.94,North,-999,-999.0,-999.0,77,0.00,,,0.00,WSDL version 420,2013-08-30 08:15:00,
2013-08-30 04:20:00,69.8,62.3,27.94,North,-999,-999.0,-999.0,77,0.00,,,0.00,WSDL version 420,2013-08-30 08:20:00,
2013-08-30 04:25:00,69.8,62.3,27.94,North,-999,-999.0,-999.0,77,0.00,,,0.00,WSDL version 420,2013-08-30 08:25:00,
2013-08-30 04:30:00,69.7,62.2,27.94,North,-999,-999.0,-999.0,77,0.00,,,0.00,WSDL version 420,2013-08-30 08:30:00,
2013-08-30 04:35:00,69.6,62.1,27.94,North,-999,-999.0,-999.0,77,0.00,,,0.00,WSDL version 420,2013-08-30 08:35:00,
2013-08-30 04:40:00,69.6,62.1,27.94,North,-999,-999.0,-999.0,77,0.00,,,0.00,WSDL version 420,2013-08-30 08:40:00,
2013-08-30 04:45:00,69.6,62.1,27.94,North,-999,-999.0,-999.0,77,0.00,,,0.00,WSDL version 420,2013-08-30 08:45:00,
2013-08-30 04:50:00,69.5,62.0,27.94,North,-999,-999.0,-999.0,77,0.00,,,0.00,WSDL version 420,2013-08-30 08:50:00,
2013-08-30 04:55:00,69.4,61.9,27.94,North,-999,-999.0,-999.0,77,0.00,,,0.00,WSDL version 420,2013-08-30 08:55:00,
2013-08-30 05:00:00,69.4,61.9,27.94,North,-999,-999.0,-999.0,77,0.00,,,0.00,WSDL version 420,2013-08-30 09:00:00,
2013-08-30 05:05:00,69.4,61.9,27.94,North,-999,-999.0,-999.0,77,0.00,,,0.00,WSDL version 420,2013-08-30 09:05:00,
2013-08-30 05:10:00,69.3,61.4,27.94,North,-999,-999.0,-999.0,76,0.00,,,0.00,WSDL version 420,2013-08-30 09:10:00,
2013-08-30 05:15:00,69.1,61.3,27.94,North,-999,-999.0,-999.0,76,0.00,,,0.00,WSDL version 420,2013-08-30 09:15:00,
2013-08-30 05:20:00,69.1,61.5,27.94,North,-999,-999.0,-999.0,77,0.00,,,0.00,WSDL version 420,2013-08-30 09:20:00,
2013-08-30 05:25:00,69.1,61.3,27.94,North,-999,-999.0,-999.0,76,0.00,,,0.00,WSDL version 420,2013-08-30 09:25:00,
2013-08-30 05:30:00,69.1,61.2,27.94,North,-999,-999.0,-999.0,76,0.00,,,0.00,WSDL version 420,2013-08-30 09:30:00,
2013-08-30 05:35:00,69.0,61.1,27.94,North,-999,-999.0,-999.0,76,0.00,,,0.00,WSDL version 420,2013-08-30 09:35:00,
2013-08-30 05:40:00,68.9,61.0,27.94,North,-999,-999.0,-999.0,76,0.00,,,0.00,WSDL version 420,2013-08-30 09:40:00,
2013-08-30 05:45:00,68.9,61.0,27.94,North,-999,-999.0,-999.0,76,0.00,,,0.00,WSDL version 420,2013-08-30 09:45:00,
2013-08-30 05:50:00,68.9,61.0,27.94,North,-999,-999.0,-999.0,76,0.00,,,0.00,WSDL version 420,2013-08-30 09:50:00,
2013-08-30 05:55:00,69.0,61.1,27.94,SSW,203,0.0,0.0,76,0.00,,,0.00,WSDL version 420,2013-08-30 09:55:00,
2013-08-30 06:00:00,69.1,61.2,27.94,SSW,203,0.0,0.0,76,0.00,,,0.00,WSDL version 420,2013-08-30 10:00:00,
2013-08-30 06:05:00,69.1,61.3,27.94,SSW,203,0.0,0.0,76,0.00,,,0.00,WSDL version 420,2013-08-30 10:05:00,
2013-08-30 06:10:00,69.3,61.4,27.94,North,-999,-999.0,-999.0,76,0.00,,,0.00,WSDL version 420,2013-08-30 10:10:00,
2013-08-30 06:15:00,69.1,61.1,27.94,North,-999,-999.0,-999.0,75,0.00,,,0.00,WSDL version 420,2013-08-30 10:15:00,
2013-08-30 06:20:00,68.9,60.8,27.94,North,-999,-999.0,-999.0,76,0.00,,,0.00,WSDL version 420,2013-08-30 10:20:00,
2013-08-30 06:25:00,68.9,61.0,27.94,North,-999,-999.0,-999.0,76,0.00,,,0.00,WSDL version 420,2013-08-30 10:25:00,
2013-08-30 06:30:00,68.8,61.0,27.94,North,-999,-999.0,-999.0,76,0.00,,,0.00,WSDL version 420,2013-08-30 10:30:00,
2013-08-30 06:35:00,68.8,61.0,27.94,North,-999,-999.0,-999.0,76,0.00,,,0.00,WSDL version 420,2013-08-30 10:35:00,
2013-08-30 06:40:00,68.9,61.0,27.94,North,-999,-999.0,-999.0,76,0.00,,,0.00,WSDL version 420,2013-08-30 10:40:00,
2013-08-30 06:45:00,68.8,60.9,27.96,North,-999,-999.0,-999.0,76,0.00,,,0.00,WSDL version 420,2013-08-30 10:45:00,
2013-08-30 06:50:00,68.7,60.8,27.96,North,-999,-999.0,-999.0,76,0.00,,,0.00,WSDL version 420,2013-08-30 10:50:00,
2013-08-30 06:55:00,68.5,60.6,27.96,North,-999,-999.0,-999.0,76,0.00,,,0.00,WSDL version 420,2013-08-30 10:55:00,
2013-08-30 07:00:00,68.4,60.3,27.96,North,-999,-999.0,-999.0,76,0.00,,,0.00,WSDL version 420,2013-08-30 11:00:00,
2013-08-30 07:05:00,68.3,60.4,27.96,North,-999,-999.0,-999.0,76,0.00,,,0.00,WSDL version 420,2013-08-30 11:05:00,
2013-08-30 07:10:00,68.1,60.2,27.96,ENE,68,0.0,0.0,76,0.00,,,0.00,WSDL version 420,2013-08-30 11:10:00,
2013-08-30 07:15:00,68.0,60.2,27.96,ENE,68,0.0,0.0,76,0.00,,,0.00,WSDL version 420,2013-08-30 11:15:00,
2013-08-30 07:20:00,68.0,60.2,27.96,ENE,68,0.0,0.0,76,0.00,,,0.00,WSDL version 420,2013-08-30 11:20:00,
2013-08-30 07:25:00,67.8,60.1,27.96,ENE,68,0.0,0.0,77,0.00,,,0.00,WSDL version 420,2013-08-30 11:25:00,
2013-08-30 07:30:00,68.0,60.4,27.96,ENE,68,0.0,0.0,77,0.00,,,0.00,WSDL version 420,2013-08-30 11:30:00,
2013-08-30 07:35:00,68.0,60.5,27.96,ENE,68,0.0,0.0,77,0.00,,,0.00,WSDL version 420,2013-08-30 11:35:00,
2013-08-30 07:40:00,68.0,60.5,27.96,ENE,68,0.0,0.0,77,0.00,,,0.00,WSDL version 420,2013-08-30 11:40:00,
2013-08-30 07:45:00,68.0,60.5,27.96,ENE,68,0.0,0.0,77,0.00,,,0.00,WSDL version 420,2013-08-30 11:45:00,
2013-08-30 07:50:00,68.1,60.6,27.96,South,188,0.0,0.0,77,0.00,,,0.00,WSDL version 420,2013-08-30 11:50:00,
2013-08-30 07:55:00,68.4,61.1,27.96,SW,225,0.0,0.0,78,0.00,,,0.00,WSDL version 420,2013-08-30 11:55:00,
2013-08-30 08:00:00,68.5,61.4,27.96,SSW,203,0.0,0.0,78,0.00,,,0.00,WSDL version 420,2013-08-30 12:00:00,
2013-08-30 08:05:00,68.7,61.5,27.96,ESE,113,0.9,0.9,78,0.00,,,0.00,WSDL version 420,2013-08-30 12:05:00,
2013-08-30 08:10:00,68.8,62.0,27.96,ESE,113,0.9,0.9,79,0.00,,,0.00,WSDL version 420,2013-08-30 12:10:00,
2013-08-30 08:15:00,69.0,62.2,27.96,ESE,113,0.9,0.9,79,0.00,,,0.00,WSDL version 420,2013-08-30 12:15:00,
2013-08-30 08:20:00,69.2,62.4,27.96,North,-999,-999.0,-999.0,79,0.00,,,0.00,WSDL version 420,2013-08-30 12:20:00,
2013-08-30 08:25:00,69.4,62.6,27.96,North,-999,-999.0,-999.0,79,0.00,,,0.00,WSDL version 420,2013-08-30 12:25:00,
2013-08-30 08:30:00,69.8,63.0,27.96,North,-999,-999.0,-999.0,79,0.00,,,0.00,WSDL version 420,2013-08-30 12:30:00,
2013-08-30 08:35:00,70.1,62.9,27.96,North,-999,-999.0,-999.0,78,0.00,,,0.00,WSDL version 420,2013-08-30 12:35:00,
2013-08-30 08:40:00,70.3,63.2,27.96,North,-999,-999.0,-999.0,78,0.00,,,0.00,WSDL version 420,2013-08-30 12:40:00,
2013-08-30 08:45:00,70.3,63.2,27.96,North,-999,-999.0,-999.0,78,0.00,,,0.00,WSDL version 420,2013-08-30 12:45:00,
2013-08-30 08:50:00,70.5,63.1,27.96,North,-999,-999.0,-999.0,77,0.00,,,0.00,WSDL version 420,2013-08-30 12:50:00,
2013-08-30 08:55:00,70.5,63.0,27.96,North,-999,-999.0,-999.0,77,0.00,,,0.00,WSDL version 420,2013-08-30 12:55:00,
2013-08-30 09:00:00,70.5,63.0,27.96,North,-999,-999.0,-999.0,77,0.00,,,0.00,WSDL version 420,2013-08-30 13:00:00,
2013-08-30 09:05:00,70.5,63.0,27.96,North,-999,-999.0,-999.0,77,0.00,,,0.00,WSDL version 420,2013-08-30 13:05:00,
2013-08-30 09:10:00,70.6,62.9,27.96,North,-999,-999.0,-999.0,76,0.00,,,0.00,WSDL version 420,2013-08-30 13:10:00,
2013-08-30 09:15:00,70.7,62.5,27.96,North,-999,-999.0,-999.0,75,0.00,,,0.00,WSDL version 420,2013-08-30 13:15:00,
2013-08-30 09:20:00,70.9,62.8,27.96,North,-999,-999.0,-999.0,76,0.00,,,0.00,WSDL version 420,2013-08-30 13:20:00,
2013-08-30 09:25:00,71.1,63.2,27.96,North,-999,-999.0,-999.0,76,0.00,,,0.00,WSDL version 420,2013-08-30 13:25:00,
2013-08-30 09:30:00,71.7,63.8,27.96,North,-999,-999.0,-999.0,76,0.00,,,0.00,WSDL version 420,2013-08-30 13:30:00,
2013-08-30 09:35:00,72.1,64.2,27.96,North,-999,-999.0,-999.0,76,0.00,,,0.00,WSDL version 420,2013-08-30 13:35:00,
2013-08-30 09:40:00,72.1,63.8,27.96,North,-999,-999.0,-999.0,75,0.00,,,0.00,WSDL version 420,2013-08-30 13:40:00,
2013-08-30 09:45:00,72.3,63.9,27.96,North,-999,-999.0,-999.0,75,0.00,,,0.00,WSDL version 420,2013-08-30 13:45:00,
2013-08-30 09:50:00,72.6,63.8,27.96,North,-999,-999.0,-999.0,74,0.00,,,0.00,WSDL version 420,2013-08-30 13:50:00,
2013-08-30 09:55:00,72.8,64.0,27.96,WSW,248,0.0,0.0,74,0.00,,,0.00,WSDL version 420,2013-08-30 13:55:00,
2013-08-30 10:00:00,73.1,64.1,27.96,WSW,248,0.0,0.0,73,0.00,,,0.00,WSDL version 420,2013-08-30 14:00:00,
2013-08-30 10:05:00,73.1,63.9,27.96,SSW,203,0.0,0.0,73,0.00,,,0.00,WSDL version 420,2013-08-30 14:05:00,
2013-08-30 10:10:00,73.5,64.2,27.96,WNW,293,0.0,0.0,73,0.00,,,0.00,WSDL version 420,2013-08-30 14:10:00,
2013-08-30 10:15:00,73.9,64.3,27.96,ENE,68,0.9,0.9,72,0.00,,,0.00,WSDL version 420,2013-08-30 14:15:00,
2013-08-30 10:20:00,74.1,64.5,27.96,ENE,68,0.9,0.9,72,0.00,,,0.00,WSDL version 420,2013-08-30 14:20:00,
2013-08-30 10:25:00,74.4,64.5,27.96,ENE,68,0.9,0.9,71,0.00,,,0.00,WSDL version 420,2013-08-30 14:25:00,
2013-08-30 10:30:00,74.8,64.5,27.96,NNE,23,0.9,0.9,70,0.00,,,0.00,WSDL version 420,2013-08-30 14:30:00,
2013-08-30 10:35:00,75.0,64.4,27.96,NNE,23,0.9,0.9,69,0.00,,,0.00,WSDL version 420,2013-08-30 14:35:00,
2013-08-30 10:40:00,75.0,64.2,27.96,NNE,23,0.9,0.9,69,0.00,,,0.00,WSDL version 420,2013-08-30 14:40:00,
2013-08-30 10:45:00,75.0,63.9,27.96,North,-999,-999.0,-999.0,68,0.00,,,0.00,WSDL version 420,2013-08-30 14:45:00,
2013-08-30 10:50:00,75.4,64.1,27.96,ENE,68,0.0,0.9,68,0.00,,,0.00,WSDL version 420,2013-08-30 14:50:00,
2013-08-30 10:55:00,75.8,64.4,27.96,ENE,68,0.0,0.0,67,0.00,,,0.00,WSDL version 420,2013-08-30 14:55:00,
2013-08-30 11:00:00,76.0,64.0,27.96,ENE,68,0.0,0.0,66,0.00,,,0.00,WSDL version 420,2013-08-30 15:00:00,
2013-08-30 11:05:00,76.0,63.9,27.96,SE,135,2.0,2.0,66,0.00,,,0.00,WSDL version 420,2013-08-30 15:05:00,
2013-08-30 11:10:00,76.2,64.0,27.96,SSE,158,0.0,2.0,66,0.00,,,0.00,WSDL version 420,2013-08-30 15:10:00,
2013-08-30 11:15:00,76.3,63.8,27.96,SSW,203,0.0,2.0,65,0.00,,,0.00,WSDL version 420,2013-08-30 15:15:00,
2013-08-30 11:20:00,76.2,63.5,27.96,SSW,203,0.0,1.6,64,0.00,,,0.00,WSDL version 420,2013-08-30 15:20:00,
2013-08-30 11:25:00,76.3,63.4,27.96,SSW,203,0.0,0.0,64,0.00,,,0.00,WSDL version 420,2013-08-30 15:25:00,
2013-08-30 11:30:00,76.9,63.9,27.96,North,-999,-999.0,-999.0,64,0.00,,,0.00,WSDL version 420,2013-08-30 15:30:00,
2013-08-30 11:40:00,77.7,64.7,27.96,SW,225,1.1,1.1,64,0.00,,,0.00,WSDL version 420,2013-08-30 15:40:00,
2013-08-30 11:45:00,77.4,64.3,27.96,WSW,248,0.0,1.6,64,0.00,,,0.00,WSDL version 420,2013-08-30 15:45:00,
2013-08-30 11:50:00,77.2,63.6,27.96,SSE,158,2.7,2.7,63,0.00,,,0.00,WSDL version 420,2013-08-30 15:50:00,
2013-08-30 11:55:00,77.5,64.1,27.96,SSE,158,2.7,2.7,63,0.00,,,0.00,WSDL version 420,2013-08-30 15:55:00,
2013-08-30 12:00:00,77.5,63.9,27.96,ENE,68,2.0,2.7,63,0.00,,,0.00,WSDL version 420,2013-08-30 16:00:00,
2013-08-30 12:05:00,77.9,64.3,27.96,NE,34,1.0,2.0,63,0.00,,,0.00,WSDL version 420,2013-08-30 16:05:00,
2013-08-30 12:10:00,78.0,64.4,27.96,NE,56,0.0,2.0,63,0.00,,,0.00,WSDL version 420,2013-08-30 16:10:00,
2013-08-30 12:15:00,78.8,65.0,27.96,ESE,113,0.0,0.0,62,0.00,,,0.00,WSDL version 420,2013-08-30 16:15:00,
2013-08-30 12:20:00,78.9,64.7,27.96,ESE,113,0.0,0.0,62,0.00,,,0.00,WSDL version 420,2013-08-30 16:20:00,
2013-08-30 12:25:00,79.5,65.2,27.96,North,0,0.0,0.0,61,0.00,,,0.00,WSDL version 420,2013-08-30 16:25:00,
2013-08-30 12:30:00,79.2,64.1,27.96,North,-999,-999.0,-999.0,60,0.00,,,0.00,WSDL version 420,2013-08-30 16:30:00,
2013-08-30 12:35:00,78.8,63.9,27.96,North,-999,-999.0,-999.0,61,0.00,,,0.00,WSDL version 420,2013-08-30 16:35:00,
2013-08-30 12:40:00,79.0,64.0,27.96,North,-999,-999.0,-999.0,60,0.00,,,0.00,WSDL version 420,2013-08-30 16:40:00,
2013-08-30 12:45:00,79.6,64.9,27.96,North,-999,-999.0,-999.0,60,0.00,,,0.00,WSDL version 420,2013-08-30 16:45:00,
2013-08-30 12:50:00,80.7,65.3,27.96,North,-999,-999.0,-999.0,59,0.00,,,0.00,WSDL version 420,2013-08-30 16:50:00,
2013-08-30 12:55:00,80.4,64.6,27.96,North,-999,-999.0,-999.0,59,0.00,,,0.00,WSDL version 420,2013-08-30 16:55:00,
2013-08-30 13:00:00,80.4,64.8,27.96,SSW,203,2.2,2.2,59,0.00,,,0.00,WSDL version 420,2013-08-30 17:00:00,
2013-08-30 13:05:00,80.7,64.4,27.96,SSW,203,2.2,2.2,58,0.00,,,0.00,WSDL version 420,2013-08-30 17:05:00,
2013-08-30 13:10:00,81.2,65.0,27.94,WNW,285,1.5,2.2,58,0.00,,,0.00,WSDL version 420,2013-08-30 17:10:00,
2013-08-30 13:15:00,81.4,64.2,27.94,SW,233,1.7,2.2,56,0.00,,,0.00,WSDL version 420,2013-08-30 17:15:00,
2013-08-30 13:20:00,81.7,64.4,27.94,ESE,113,2.5,2.7,55,0.00,,,0.00,WSDL version 420,2013-08-30 17:20:00,
2013-08-30 13:25:00,81.9,64.0,27.94,NE,45,2.5,2.7,55,0.00,,,0.00,WSDL version 420,2013-08-30 17:25:00,
2013-08-30 13:30:00,82.1,64.4,27.94,NNE,23,1.8,2.5,55,0.00,,,0.00,WSDL version 420,2013-08-30 17:30:00,
2013-08-30 13:35:00,82.2,63.6,27.94,West,270,1.8,3.1,53,0.00,,,0.00,WSDL version 420,2013-08-30 17:35:00,
2013-08-30 13:40:00,82.9,63.5,27.94,West,270,0.9,3.1,52,0.00,,,0.00,WSDL version 420,2013-08-30 17:40:00,
2013-08-30 13:45:00,82.8,63.2,27.94,NW,315,1.3,3.1,51,0.00,,,0.00,WSDL version 420,2013-08-30 17:45:00,
2013-08-30 13:50:00,82.8,62.4,27.94,East,98,2.5,2.7,50,0.00,,,0.00,WSDL version 420,2013-08-30 17:50:00,
2013-08-30 13:55:00,83.4,63.2,27.94,NNE,23,1.3,2.7,51,0.00,,,0.00,WSDL version 420,2013-08-30 17:55:00,
2013-08-30 14:00:00,84.0,63.7,27.94,WNW,285,1.8,2.2,50,0.00,,,0.00,WSDL version 420,2013-08-30 18:00:00,
2013-08-30 14:05:00,84.0,63.9,27.94,NNW,338,1.2,2.2,51,0.00,,,0.00,WSDL version 420,2013-08-30 18:05:00,
2013-08-30 14:10:00,83.1,63.1,27.91,East,101,1.6,2.9,51,0.00,,,0.00,WSDL version 420,2013-08-30 18:10:00,
2013-08-30 14:15:00,83.2,63.1,27.94,WSW,248,2.5,2.9,50,0.00,,,0.00,WSDL version 420,2013-08-30 18:15:00,
2013-08-30 14:20:00,84.0,63.2,27.94,SE,143,2.5,2.9,49,0.00,,,0.00,WSDL version 420,2013-08-30 18:20:00,
2013-08-30 14:25:00,84.4,63.2,27.94,West,270,1.6,2.9,49,0.00,,,0.00,WSDL version 420,2013-08-30 18:25:00,
2013-08-30 14:30:00,84.3,62.2,27.91,East,101,2.1,2.7,47,0.00,,,0.00,WSDL version 420,2013-08-30 18:30:00,
2013-08-30 14:35:00,83.4,62.1,27.91,ENE,68,2.5,2.9,48,0.00,,,0.00,WSDL version 420,2013-08-30 18:35:00,
2013-08-30 14:40:00,83.1,61.8,27.91,NNE,30,2.2,2.9,49,0.00,,,0.00,WSDL version 420,2013-08-30 18:40:00,
2013-08-30 14:45:00,82.6,61.3,27.91,WNW,285,1.3,2.7,49,0.00,,,0.00,WSDL version 420,2013-08-30 18:45:00,
2013-08-30 14:50:00,81.9,61.4,27.91,North,360,1.8,2.5,50,0.00,,,0.00,WSDL version 420,2013-08-30 18:50:00,
2013-08-30 14:55:00,81.4,61.4,27.91,NNE,23,0.0,2.5,50,0.00,,,0.00,WSDL version 420,2013-08-30 18:55:00,
2013-08-30 15:00:00,82.0,62.1,27.91,South,180,0.8,1.6,51,0.00,,,0.00,WSDL version 420,2013-08-30 19:00:00,
2013-08-30 15:05:00,82.5,62.0,27.91,East,79,0.8,1.6,50,0.00,,,0.00,WSDL version 420,2013-08-30 19:05:00,
2013-08-30 15:10:00,82.1,62.2,27.91,ENE,68,0.9,1.6,51,0.00,,,0.00,WSDL version 420,2013-08-30 19:10:00,
2013-08-30 15:15:00,83.0,63.0,27.91,ENE,68,2.5,2.5,51,0.00,,,0.00,WSDL version 420,2013-08-30 19:15:00,
2013-08-30 15:20:00,82.5,62.5,27.91,NW,304,1.1,2.5,51,0.00,,,0.00,WSDL version 420,2013-08-30 19:20:00,
2013-08-30 15:25:00,82.9,62.6,27.91,WNW,293,0.8,2.2,51,0.00,,,0.00,WSDL version 420,2013-08-30 19:25:00,
2013-08-30 15:30:00,84.3,64.2,27.91,West,270,1.6,2.5,51,0.00,,,0.00,WSDL version 420,2013-08-30 19:30:00,
2013-08-30 15:35:00,85.1,64.2,27.91,SE,135,0.6,2.5,49,0.00,,,0.00,WSDL version 420,2013-08-30 19:35:00,
2013-08-30 15:40:00,84.7,63.0,27.91,NE,45,1.3,2.5,48,0.00,,,0.00,WSDL version 420,2013-08-30 19:40:00,
2013-08-30 15:45:00,83.9,62.1,27.91,East,83,1.4,2.2,48,0.00,,,0.00,WSDL version 420,2013-08-30 19:45:00,
2013-08-30 15:50:00,84.4,62.6,27.91,ENE,68,1.6,2.2,48,0.00,,,0.00,WSDL version 420,2013-08-30 19:50:00,
2013-08-30 15:55:00,84.3,62.3,27.91,SE,128,0.9,1.6,47,0.00,,,0.00,WSDL version 420,2013-08-30 19:55:00,
2013-08-30 16:00:00,84.5,61.4,27.91,WNW,293,0.9,0.9,46,0.00,,,0.00,WSDL version 420,2013-08-30 20:00:00,
2013-08-30 16:05:00,84.9,62.1,27.91,NW,308,2.3,2.9,46,0.00,,,0.00,WSDL version 420,2013-08-30 20:05:00,
2013-08-30 16:10:00,84.2,61.0,27.91,NE,34,1.3,2.9,46,0.00,,,0.00,WSDL version 420,2013-08-30 20:10:00,
2013-08-30 16:15:00,84.0,61.4,27.91,NE,45,1.3,2.7,47,0.00,,,0.00,WSDL version 420,2013-08-30 20:15:00,
2013-08-30 16:20:00,83.9,61.5,27.91,SSW,203,0.9,2.0,47,0.00,,,0.00,WSDL version 420,2013-08-30 20:20:00,
2013-08-30 16:25:00,83.3,61.2,27.91,SSW,203,3.1,3.1,48,-99.99,,,-99.99,WSDL version 420,2013-08-30 20:25:00,
2013-08-30 16:30:00,83.8,61.4,27.91,SSE,158,3.1,3.1,47,0.00,,,0.00,WSDL version 420,2013-08-30 20:30:00,
2013-08-30 16:35:00,84.4,61.2,27.91,SSE,158,3.1,3.1,45,0.00,,,0.00,WSDL version 420,2013-08-30 20:35:00,
2013-08-30 16:40:00,84.7,61.4,27.91,West,270,1.9,3.1,46,0.00,,,0.00,WSDL version 420,2013-08-30 20:40:00,
2013-08-30 16:45:00,83.7,60.6,27.91,SSW,203,1.6,3.1,45,0.00,,,0.00,WSDL version 420,2013-08-30 20:45:00,
2013-08-30 16:50:00,83.4,59.9,27.91,NNE,23,2.9,2.9,45,0.00,,,0.00,WSDL version 420,2013-08-30 20:50:00,
2013-08-30 16:55:00,83.8,60.2,27.91,West,281,2.3,4.0,44,0.00,,,0.00,WSDL version 420,2013-08-30 20:55:00,
2013-08-30 17:00:00,84.4,60.4,27.88,North,360,2.1,4.0,44,0.00,,,0.00,WSDL version 420,2013-08-30 21:00:00,
2013-08-30 17:05:00,84.7,60.6,27.88,NE,53,2.2,2.5,44,0.00,,,0.00,WSDL version 420,2013-08-30 21:05:00,
2013-08-30 17:10:00,84.7,60.4,27.88,East,83,2.5,2.7,44,0.00,,,0.00,WSDL version 420,2013-08-30 21:10:00,
2013-08-30 17:15:00,84.9,61.0,27.88,NNW,330,2.5,2.9,45,0.00,,,0.00,WSDL version 420,2013-08-30 21:15:00,
2013-08-30 17:20:00,84.7,60.4,27.88,NNE,15,1.2,2.9,44,0.00,,,0.00,WSDL version 420,2013-08-30 21:20:00,
2013-08-30 17:25:00,84.7,61.1,27.88,South,180,2.0,2.0,45,0.00,,,0.00,WSDL version 420,2013-08-30 21:25:00,
2013-08-30 17:30:00,84.3,60.6,27.88,SSW,203,1.6,2.0,45,0.00,,,0.00,WSDL version 420,2013-08-30 21:30:00,
2013-08-30 17:35:00,83.7,59.9,27.88,West,281,1.3,1.6,44,0.00,,,0.00,WSDL version 420,2013-08-30 21:35:00,
2013-08-30 17:40:00,83.8,59.6,27.88,ESE,113,2.2,2.2,44,-99.99,,,-99.99,WSDL version 420,2013-08-30 21:40:00,
2013-08-30 17:45:00,84.3,60.0,27.88,South,180,3.4,3.4,43,0.00,,,0.00,WSDL version 420,2013-08-30 21:45:00,
2013-08-30 17:50:00,84.3,59.4,27.88,WNW,293,1.6,3.4,43,0.00,,,0.00,WSDL version 420,2013-08-30 21:50:00,
2013-08-30 17:55:00,84.2,59.3,27.88,NE,45,1.6,1.6,43,0.00,,,0.00,WSDL version 420,2013-08-30 21:55:00,
2013-08-30 18:00:00,84.0,59.6,27.88,NNW,338,1.2,2.0,44,0.00,,,0.00,WSDL version 420,2013-08-30 22:00:00,
2013-08-30 18:05:00,84.1,59.2,27.88,WSW,248,1.6,2.0,42,0.00,,,0.00,WSDL version 420,2013-08-30 22:05:00,
2013-08-30 18:10:00,84.1,59.4,27.88,SE,146,0.8,2.2,44,0.00,,,0.00,WSDL version 420,2013-08-30 22:10:00,
2013-08-30 18:15:00,83.8,59.2,27.88,SW,225,1.7,2.2,44,0.00,,,0.00,WSDL version 420,2013-08-30 22:15:00,
2013-08-30 18:20:00,83.8,59.0,27.88,SE,128,1.6,2.2,43,0.00,,,0.00,WSDL version 420,2013-08-30 22:20:00,
2013-08-30 18:25:00,83.7,58.8,27.88,East,79,1.2,2.2,43,0.00,,,0.00,WSDL version 420,2013-08-30 22:25:00,
2013-08-30 18:30:00,83.5,58.9,27.88,East,90,2.0,2.0,43,0.00,,,0.00,WSDL version 420,2013-08-30 22:30:00,
2013-08-30 18:35:00,83.3,58.7,27.88,NNE,23,0.9,2.0,43,0.00,,,0.00,WSDL version 420,2013-08-30 22:35:00,
2013-08-30 18:40:00,83.2,58.7,27.88,ENE,68,1.0,2.0,44,0.00,,,0.00,WSDL version 420,2013-08-30 22:40:00,
2013-08-30 18:45:00,83.4,58.8,27.88,WSW,248,1.8,2.7,44,0.00,,,0.00,WSDL version 420,2013-08-30 22:45:00,
2013-08-30 18:50:00,83.7,59.0,27.88,SSE,158,0.7,2.7,43,0.00,,,0.00,WSDL version 420,2013-08-30 22:50:00,
2013-08-30 18:55:00,83.8,59.2,27.88,ESE,113,2.9,2.9,43,0.00,,,0.00,WSDL version 420,2013-08-30 22:55:00,
2013-08-30 19:00:00,83.6,59.0,27.88,East,90,0.0,2.9,44,0.00,,,0.00,WSDL version 420,2013-08-30 23:00:00,
2013-08-30 19:05:00,83.2,58.6,27.88,East,90,0.0,2.9,44,0.00,,,0.00,WSDL version 420,2013-08-30 23:05:00,
2013-08-30 19:10:00,82.3,58.3,27.88,ENE,68,0.7,1.6,44,0.00,,,0.00,WSDL version 420,2013-08-30 23:10:00,
2013-08-30 19:15:00,81.7,58.1,27.88,East,90,0.0,1.6,45,0.00,,,0.00,WSDL version 420,2013-08-30 23:15:00,
2013-08-30 19:20:00,81.2,57.7,27.88,East,90,0.0,0.0,45,0.00,,,0.00,WSDL version 420,2013-08-30 23:20:00,
2013-08-30 19:25:00,80.9,57.6,27.88,East,90,0.0,0.0,45,0.00,,,0.00,WSDL version 420,2013-08-30 23:25:00,
2013-08-30 19:30:00,80.7,58.2,27.88,ENE,68,0.0,0.0,47,0.00,,,0.00,WSDL version 420,2013-08-30 23:30:00,
2013-08-30 19:35:00,80.5,58.8,27.88,SSW,195,0.0,0.0,48,0.00,,,0.00,WSDL version 420,2013-08-30 23:35:00,
2013-08-30 19:40:00,80.2,59.1,27.88,East,90,0.0,0.0,49,0.00,,,0.00,WSDL version 420,2013-08-30 23:40:00,
2013-08-30 19:45:00,79.7,59.4,27.88,WSW,248,0.0,0.0,50,0.00,,,0.00,WSDL version 420,2013-08-30 23:45:00,
2013-08-30 19:50:00,79.3,59.6,27.88,SE,143,0.0,0.0,51,0.00,,,0.00,WSDL version 420,2013-08-30 23:50:00,
2013-08-30 19:55:00,79.0,59.9,27.88,SE,135,0.0,0.0,52,0.00,,,0.00,WSDL version 420,2013-08-30 23:55:00,
2013-08-30 20:00:00,78.7,60.0,27.88,East,101,0.0,0.0,53,0.00,,,0.00,WSDL version 420,2013-08-31 00:00:00,
2013-08-30 20:05:00,78.3,60.1,27.88,East,90,0.0,0.0,54,0.00,,,0.00,WSDL version 420,2013-08-31 00:05:00,
2013-08-30 20:10:00,77.9,60.5,27.88,ENE,68,0.0,0.0,55,0.00,,,0.00,WSDL version 420,2013-08-31 00:10:00,
2013-08-30 20:15:00,77.5,60.6,27.88,East,79,0.0,0.0,56,0.00,,,0.00,WSDL version 420,2013-08-31 00:15:00,
2013-08-30 20:20:00,77.2,60.6,27.88,East,90,0.0,0.0,57,0.00,,,0.00,WSDL version 420,2013-08-31 00:20:00,
2013-08-30 20:25:00,76.9,60.8,27.88,SE,135,0.0,0.0,58,0.00,,,0.00,WSDL version 420,2013-08-31 00:25:00,
2013-08-30 20:30:00,76.5,60.8,27.88,West,259,0.0,0.0,59,0.00,,,0.00,WSDL version 420,2013-08-31 00:30:00,
2013-08-30 20:35:00,76.3,60.9,27.88,SW,233,0.0,0.0,59,0.00,,,0.00,WSDL version 420,2013-08-31 00:35:00,
2013-08-30 20:40:00,76.0,61.1,27.88,SSE,158,0.0,0.0,60,0.00,,,0.00,WSDL version 420,2013-08-31 00:40:00,
2013-08-30 20:45:00,75.6,60.7,27.88,WSW,248,0.0,0.0,60,0.00,,,0.00,WSDL version 420,2013-08-31 00:45:00,
2013-08-30 20:50:00,75.3,60.9,27.88,WSW,248,0.0,0.0,61,0.00,,,0.00,WSDL version 420,2013-08-31 00:50:00,
2013-08-30 20:55:00,75.1,61.0,27.88,West,259,0.0,0.0,62,0.00,,,0.00,WSDL version 420,2013-08-31 00:55:00,
2013-08-30 21:00:00,74.8,61.0,27.88,ESE,113,0.0,0.0,62,0.00,,,0.00,WSDL version 420,2013-08-31 01:00:00,
2013-08-30 21:05:00,74.5,61.0,27.88,SSE,158,0.0,0.0,63,0.00,,,0.00,WSDL version 420,2013-08-31 01:05:00,
2013-08-30 21:10:00,74.4,61.0,27.88,South,180,0.0,0.9,63,-99.99,,,-99.99,WSDL version 420,2013-08-31 01:10:00,
2013-08-30 21:15:00,74.2,60.8,27.91,South,180,0.0,0.9,63,0.00,,,0.00,WSDL version 420,2013-08-31 01:15:00,
2013-08-30 21:20:00,74.0,60.8,27.91,South,180,0.0,0.0,64,0.00,,,0.00,WSDL version 420,2013-08-31 01:20:00,
2013-08-30 21:25:00,73.9,60.9,27.91,South,180,0.0,0.0,64,0.00,,,0.00,WSDL version 420,2013-08-31 01:25:00,
2013-08-30 21:30:00,73.5,60.6,27.88,NW,323,0.0,1.1,64,0.00,,,0.00,WSDL version 420,2013-08-31 01:30:00,
2013-08-30 21:35:00,73.2,60.7,27.88,North,11,0.0,1.1,65,0.00,,,0.00,WSDL version 420,2013-08-31 01:35:00,
2013-08-30 21:40:00,72.9,60.5,27.88,NNE,23,0.0,0.0,65,0.00,,,0.00,WSDL version 420,2013-08-31 01:40:00,
2013-08-30 21:45:00,72.7,60.4,27.88,NNE,23,0.0,0.0,66,0.00,,,0.00,WSDL version 420,2013-08-31 01:45:00,
2013-08-30 21:50:00,72.6,60.4,27.88,NNE,23,0.0,0.0,66,0.00,,,0.00,WSDL version 420,2013-08-31 01:50:00,
2013-08-30 21:55:00,72.5,60.5,27.88,ENE,68,0.0,0.0,66,0.00,,,0.00,WSDL version 420,2013-08-31 01:55:00,
2013-08-30 22:00:00,72.5,60.5,27.88,ENE,68,0.0,0.0,66,0.00,,,0.00,WSDL version 420,2013-08-31 02:00:00,
2013-08-30 22:05:00,72.3,60.3,27.88,ENE,68,0.0,0.0,66,0.00,,,0.00,WSDL version 420,2013-08-31 02:05:00,
2013-08-30 22:10:00,72.1,60.4,27.88,ENE,68,0.0,0.0,67,0.00,,,0.00,WSDL version 420,2013-08-31 02:10:00,
2013-08-30 22:15:00,72.1,60.6,27.91,ENE,68,0.0,0.0,67,0.00,,,0.00,WSDL version 420,2013-08-31 02:15:00,
2013-08-30 22:20:00,72.1,60.6,27.91,ENE,68,0.0,0.0,67,0.00,,,0.00,WSDL version 420,2013-08-31 02:20:00,
2013-08-30 22:25:00,72.1,60.5,27.91,ENE,68,0.0,0.0,67,0.00,,,0.00,WSDL version 420,2013-08-31 02:25:00,
2013-08-30 22:30:00,72.0,60.4,27.88,ENE,68,0.0,0.0,67,0.00,,,0.00,WSDL version 420,2013-08-31 02:30:00,
2013-08-30 22:35:00,72.0,60.5,27.88,ENE,68,0.0,0.0,67,0.00,,,0.00,WSDL version 420,2013-08-31 02:35:00,
2013-08-30 22:40:00,71.8,60.6,27.88,ENE,68,0.0,0.0,68,0.00,,,0.00,WSDL version 420,2013-08-31 02:40:00,
2013-08-30 22:45:00,71.7,60.5,27.88,ENE,68,0.0,0.0,68,0.00,,,0.00,WSDL version 420,2013-08-31 02:45:00,
2013-08-30 22:50:00,71.6,60.5,27.88,ENE,68,0.0,0.0,68,0.00,,,0.00,WSDL version 420,2013-08-31 02:50:00,
2013-08-30 22:55:00,71.4,60.3,27.88,ENE,68,0.0,0.0,68,0.00,,,0.00,WSDL version 420,2013-08-31 02:55:00,
2013-08-30 23:00:00,71.2,60.6,27.91,ENE,68,0.0,0.0,69,0.00,,,0.00,WSDL version 420,2013-08-31 03:00:00,
2013-08-30 23:05:00,71.2,60.6,27.91,ENE,68,0.0,0.0,69,0.00,,,0.00,WSDL version 420,2013-08-31 03:05:00,
2013-08-30 23:10:00,71.1,60.4,27.91,ENE,68,0.0,0.0,69,0.00,,,0.00,WSDL version 420,2013-08-31 03:10:00,
2013-08-30 23:15:00,71.1,60.4,27.91,NE,38,0.0,0.0,69,0.00,,,0.00,WSDL version 420,2013-08-31 03:15:00,
2013-08-30 23:20:00,70.9,60.4,27.91,NNE,23,0.0,0.0,70,0.00,,,0.00,WSDL version 420,2013-08-31 03:20:00,
2013-08-30 23:25:00,70.8,60.5,27.91,NNE,23,0.0,0.0,70,0.00,,,0.00,WSDL version 420,2013-08-31 03:25:00,
2013-08-30 23:30:00,70.8,60.5,27.91,NNE,23,0.0,0.0,70,0.00,,,0.00,WSDL version 420,2013-08-31 03:30:00,
2013-08-30 23:35:00,70.9,60.6,27.91,NNE,23,0.0,0.0,70,0.00,,,0.00,WSDL version 420,2013-08-31 03:35:00,
2013-08-30 23:40:00,70.9,60.9,27.91,East,90,0.6,1.1,71,0.00,,,0.00,WSDL version 420,2013-08-31 03:40:00,
2013-08-30 23:45:00,71.1,61.2,27.91,East,90,0.0,1.1,71,0.00,,,0.00,WSDL version 420,2013-08-31 03:45:00,
2013-08-30 23:50:00,71.1,61.2,27.91,East,90,0.9,0.9,71,0.00,,,0.00,WSDL version 420,2013-08-31 03:50:00,
2013-08-30 23:55:00,70.9,61.1,27.91,East,90,0.0,0.9,71,0.00,,,0.00,WSDL version 420,2013-08-31 03:55:00,